Strona główna
METAR-TAF:

METAR-TAF

Lotnisko :

Glasgow Municipal Airport

Glasgow, Kentucky, Stany Zjednoczone

Szerokość geograficzna: 37-01-54N, Długość geograficzna: 085-57-13W, wysokość: 218 m

Aktualna obserwacja pogody

Raport powstał 26 minut temu, godzina 13:15 UTC
Wiatr 10 kt od wschodnio-północny wschód
Temperatura 19°C
Wilgotność 73%
Ciśnienie 1020 hPa
Widzialność: 16.1 km
bezchmurnie

METAR: KGLW 241315Z AUTO 06010KT 10SM CLR 19/14 A3013 RMK AO2 T01870139

czas: 08:41 (13:41 UTC)


TAF: brakujący

Obserwacja i prognoza pogody dla ponad 4000 lotnisk (raport METAR i TAF).

Dostępne stacje oznaczono żółtymi i czerwonymi punktami na mapie.

Najedź kursorem aby zobaczyć nazwę stacji.

Kliknij aby zobaczyć obserwacje i prognozy pogody.

Aby zmienić mapę: kliknij na zielony przycisk z czarnym krzyżykiem, aby powiększyć; na zielony przycisk z myślnikiem, aby pomniejszyć; na zielone strzałki, aby przejść do map sąsiednich.


METAR-TAF: